createdAt,value
2022-09-14T00:01:33.425Z,94.30
2022-09-14T00:04:06.265Z,94.40
2022-09-14T00:06:33.681Z,94.50
2022-09-14T00:09:01.181Z,94.30
2022-09-14T00:11:30.498Z,95.30
2022-09-14T00:13:58.908Z,95.80
2022-09-14T00:16:31.771Z,95.50
2022-09-14T00:19:05.476Z,96.00
2022-09-14T00:21:42.520Z,95.80
2022-09-14T00:24:11.235Z,96.30
2022-09-14T00:26:38.073Z,96.50
2022-09-14T00:29:05.305Z,96.50
2022-09-14T00:31:34.653Z,96.50
2022-09-14T00:34:02.637Z,96.10
2022-09-14T00:36:31.001Z,96.10
2022-09-14T00:38:58.042Z,96.50
2022-09-14T00:41:28.135Z,97.30
2022-09-14T00:44:05.587Z,97.10
2022-09-14T00:46:37.180Z,97.30
2022-09-14T00:49:08.424Z,96.90
2022-09-14T00:51:38.936Z,96.70
2022-09-14T00:54:07.614Z,96.90
2022-09-14T00:56:34.776Z,97.00
2022-09-14T00:59:10.470Z,96.90
2022-09-14T01:01:37.300Z,97.80
2022-09-14T01:04:04.511Z,97.80
2022-09-14T01:06:35.361Z,97.80
2022-09-14T01:09:31.989Z,97.60
2022-09-14T01:12:20.443Z,97.30
2022-09-14T01:15:11.510Z,98.30
2022-09-14T01:17:53.074Z,98.30
2022-09-14T01:20:25.874Z,98.30
2022-09-14T01:23:14.393Z,98.30
2022-09-14T01:26:16.062Z,98.30
2022-09-14T01:28:56.571Z,98.30
2022-09-14T01:31:33.571Z,98.30
2022-09-14T01:34:08.257Z,98.30
2022-09-14T01:36:37.693Z,98.30
2022-09-14T01:39:05.476Z,98.30
2022-09-14T01:41:32.936Z,98.30
2022-09-14T01:44:14.840Z,98.30
2022-09-14T01:46:47.899Z,98.30
2022-09-14T01:49:17.268Z,98.30
2022-09-14T01:51:52.420Z,98.30
2022-09-14T01:54:25.878Z,98.30
2022-09-14T01:57:04.330Z,97.90
2022-09-14T01:59:36.947Z,98.20
2022-09-14T02:02:14.881Z,98.20
2022-09-14T02:04:52.244Z,98.30
2022-09-14T02:07:19.884Z,98.30
2022-09-14T02:09:48.235Z,98.30
2022-09-14T02:12:15.826Z,98.30
2022-09-14T02:14:44.570Z,98.30
2022-09-14T02:17:12.109Z,98.30
2022-09-14T02:19:48.356Z,98.30
2022-09-14T02:22:15.173Z,98.30
2022-09-14T02:24:42.132Z,98.30
2022-09-14T02:27:08.800Z,98.30
2022-09-14T02:29:35.993Z,98.30
2022-09-14T02:32:07.838Z,98.30
2022-09-14T02:34:55.180Z,98.30
2022-09-14T02:37:43.293Z,98.30
2022-09-14T02:40:19.101Z,98.30
2022-09-14T02:42:51.397Z,98.30
2022-09-14T02:45:25.055Z,98.30
2022-09-14T02:48:12.434Z,98.30
2022-09-14T02:50:57.858Z,98.30
2022-09-14T02:53:50.612Z,98.30
2022-09-14T02:56:18.805Z,98.30
2022-09-14T02:58:46.221Z,98.30
2022-09-14T03:01:18.748Z,98.30
2022-09-14T03:03:45.470Z,98.30
2022-09-14T03:06:12.426Z,98.30
2022-09-14T03:08:40.806Z,98.30
2022-09-14T03:11:07.554Z,98.30
2022-09-14T03:13:35.696Z,98.30
2022-09-14T03:16:11.777Z,98.30
2022-09-14T03:18:38.530Z,98.30
2022-09-14T03:21:10.624Z,98.30
2022-09-14T03:23:39.240Z,98.30
2022-09-14T03:26:10.939Z,98.30
2022-09-14T03:28:38.272Z,98.30
2022-09-14T03:31:06.603Z,98.30
2022-09-14T03:33:34.138Z,98.30
2022-09-14T03:36:01.253Z,98.30
2022-09-14T03:38:30.009Z,98.30
2022-09-14T03:41:00.176Z,98.30
2022-09-14T03:43:27.591Z,98.30
2022-09-14T03:45:54.193Z,98.30
2022-09-14T03:48:20.812Z,98.30
2022-09-14T03:50:47.553Z,98.30
2022-09-14T03:53:14.180Z,98.30
2022-09-14T03:55:41.665Z,98.30
2022-09-14T03:58:08.442Z,98.30
2022-09-14T04:00:35.810Z,98.30
2022-09-14T04:03:03.359Z,98.30
2022-09-14T04:05:30.050Z,98.30
2022-09-14T04:07:57.148Z,98.30
2022-09-14T04:10:23.974Z,98.30
2022-09-14T04:12:50.693Z,98.30
2022-09-14T04:15:17.532Z,98.30
2022-09-14T04:17:44.237Z,98.30
2022-09-14T04:20:10.979Z,98.30
2022-09-14T04:22:37.782Z,98.30
2022-09-14T04:25:05.069Z,98.30
2022-09-14T04:27:31.860Z,98.30
2022-09-14T04:29:58.498Z,98.30
2022-09-14T04:32:25.126Z,98.30
2022-09-14T04:34:51.763Z,98.30
2022-09-14T04:37:18.586Z,98.30
2022-09-14T04:39:45.307Z,98.30
2022-09-14T04:42:11.981Z,98.30
2022-09-14T04:44:38.608Z,98.30
2022-09-14T04:47:05.288Z,98.30
2022-09-14T04:49:31.937Z,98.30
2022-09-14T04:51:58.678Z,98.30
2022-09-14T04:54:25.316Z,98.30
2022-09-14T04:56:52.046Z,98.30
2022-09-14T04:59:18.690Z,98.30
2022-09-14T05:01:49.818Z,98.30
2022-09-14T05:04:17.281Z,98.30
2022-09-14T05:06:44.342Z,98.30
2022-09-14T05:09:14.359Z,98.30
2022-09-14T05:11:41.677Z,98.30
2022-09-14T05:14:11.233Z,98.30
2022-09-14T05:16:39.171Z,98.30
2022-09-14T05:19:09.309Z,98.30
2022-09-14T05:21:37.338Z,98.30
2022-09-14T05:24:08.320Z,98.30
2022-09-14T05:26:34.968Z,98.30
2022-09-14T05:29:02.503Z,98.30
2022-09-14T05:31:30.999Z,98.30
2022-09-14T05:33:58.429Z,98.30
2022-09-14T05:36:25.580Z,98.30
2022-09-14T05:38:52.661Z,98.30
2022-09-14T05:41:19.301Z,98.30
2022-09-14T05:43:46.160Z,98.30
2022-09-14T05:46:15.780Z,98.30
2022-09-14T05:48:43.114Z,98.30
2022-09-14T05:51:15.834Z,98.30
2022-09-14T05:53:46.790Z,98.30
2022-09-14T05:56:14.150Z,98.30
2022-09-14T05:58:42.344Z,98.30
2022-09-14T06:01:17.198Z,98.30
2022-09-14T06:03:45.577Z,98.30
2022-09-14T06:06:14.386Z,98.30
2022-09-14T06:08:41.622Z,98.30
2022-09-14T06:11:11.522Z,98.30
2022-09-14T06:13:38.824Z,98.30
2022-09-14T06:16:11.290Z,98.30
2022-09-14T06:18:39.402Z,98.30
2022-09-14T06:21:08.310Z,98.30
2022-09-14T06:23:35.442Z,98.30
2022-09-14T06:26:04.428Z,98.30
2022-09-14T06:28:32.305Z,98.30
2022-09-14T06:30:58.966Z,98.30
2022-09-14T06:33:25.658Z,98.30
2022-09-14T06:35:57.062Z,98.30
2022-09-14T06:38:24.573Z,98.30
2022-09-14T06:40:59.236Z,98.30
2022-09-14T06:43:31.532Z,98.30
2022-09-14T06:46:15.869Z,98.30
2022-09-14T06:48:46.101Z,98.30
2022-09-14T06:51:12.754Z,98.30
2022-09-14T06:53:39.426Z,98.30
2022-09-14T06:56:06.137Z,98.30
2022-09-14T06:58:34.125Z,98.30
2022-09-14T07:01:05.842Z,98.30
2022-09-14T07:03:35.298Z,98.30
2022-09-14T07:06:07.464Z,98.30
2022-09-14T07:08:35.562Z,98.30
2022-09-14T07:11:02.910Z,98.30
2022-09-14T07:13:30.561Z,98.30
2022-09-14T07:15:57.462Z,98.30
2022-09-14T07:18:30.217Z,98.30
2022-09-14T07:21:05.255Z,98.30
2022-09-14T07:23:32.822Z,98.30
2022-09-14T07:26:01.690Z,98.30
2022-09-14T07:28:28.753Z,98.30
2022-09-14T07:30:58.884Z,98.30
2022-09-14T07:33:25.954Z,98.30
2022-09-14T07:35:52.969Z,98.30
2022-09-14T07:38:30.777Z,98.30
2022-09-14T07:41:07.145Z,98.30
2022-09-14T07:43:33.885Z,98.30
2022-09-14T07:46:05.013Z,98.30
2022-09-14T07:48:32.913Z,98.30
2022-09-14T07:51:05.225Z,98.30
2022-09-14T07:53:33.026Z,98.30
2022-09-14T07:56:01.495Z,98.30
2022-09-14T07:58:28.790Z,98.30
2022-09-14T08:01:11.173Z,98.30
2022-09-14T08:03:40.678Z,98.30
2022-09-14T08:06:10.786Z,98.30
2022-09-14T08:08:40.043Z,98.30
2022-09-14T08:11:24.146Z,98.30
2022-09-14T08:13:59.750Z,98.30
2022-09-14T08:16:30.081Z,98.30
2022-09-14T08:19:00.042Z,98.30
2022-09-14T08:21:28.562Z,98.30
2022-09-14T08:23:57.690Z,98.30
2022-09-14T08:26:26.386Z,98.30
2022-09-14T08:28:54.674Z,98.30
2022-09-14T08:31:26.208Z,98.30
2022-09-14T08:33:58.160Z,98.30
2022-09-14T08:36:27.222Z,98.30
2022-09-14T08:38:53.872Z,98.30
2022-09-14T08:41:29.668Z,98.30
2022-09-14T08:44:20.793Z,98.30
2022-09-14T08:47:12.133Z,98.30
2022-09-14T08:49:55.042Z,98.30
2022-09-14T08:52:38.371Z,98.30
2022-09-14T08:55:38.841Z,98.30
2022-09-14T08:58:32.782Z,98.30
2022-09-14T09:01:35.932Z,98.30
2022-09-14T09:04:46.684Z,98.30
2022-09-14T09:07:28.294Z,98.30
2022-09-14T09:09:57.674Z,98.30
2022-09-14T09:12:35.438Z,98.30
2022-09-14T09:15:29.820Z,98.30
2022-09-14T09:18:11.189Z,98.30
2022-09-14T09:20:47.412Z,98.30
2022-09-14T09:23:24.082Z,98.30
2022-09-14T09:26:18.007Z,98.30
2022-09-14T09:28:51.601Z,98.30
2022-09-14T09:31:21.274Z,98.30
2022-09-14T09:34:30.655Z,98.30
2022-09-14T09:37:19.083Z,98.30
2022-09-14T09:39:46.672Z,98.30
2022-09-14T09:42:23.260Z,98.30
2022-09-14T09:45:03.638Z,98.30
2022-09-14T09:47:37.534Z,98.30
2022-09-14T09:50:20.311Z,98.30
2022-09-14T09:52:52.520Z,98.30
2022-09-14T09:55:25.133Z,96.60
2022-09-14T09:57:54.190Z,97.90
2022-09-14T10:00:24.464Z,98.20
2022-09-14T10:02:52.598Z,97.50
2022-09-14T10:05:32.479Z,95.40
2022-09-14T10:08:01.614Z,97.90
2022-09-14T10:10:34.216Z,96.40
2022-09-14T10:13:03.336Z,97.30
2022-09-14T10:15:32.299Z,95.90
2022-09-14T10:18:10.953Z,96.50
2022-09-14T10:20:53.758Z,96.20
2022-09-14T10:23:20.415Z,94.40
2022-09-14T10:25:52.440Z,95.60
2022-09-14T10:28:28.037Z,94.30
2022-09-14T10:31:19.595Z,94.30
2022-09-14T10:33:51.601Z,93.60
2022-09-14T10:36:26.172Z,92.50
2022-09-14T10:39:12.803Z,92.10
2022-09-14T10:42:05.622Z,92.10
2022-09-14T10:44:54.924Z,90.80
2022-09-14T10:47:58.514Z,89.40
2022-09-14T10:50:48.341Z,88.50
2022-09-14T10:53:41.358Z,84.80
2022-09-14T10:56:26.682Z,85.90
2022-09-14T10:59:16.733Z,85.70
2022-09-14T11:01:52.829Z,84.60
2022-09-14T11:04:25.175Z,84.70
2022-09-14T11:07:08.074Z,85.40
2022-09-14T11:10:07.315Z,85.70
2022-09-14T11:12:38.346Z,86.00
2022-09-14T11:15:18.541Z,84.80
2022-09-14T11:18:08.599Z,85.10
2022-09-14T11:21:02.295Z,85.40
2022-09-14T11:23:39.242Z,86.40
2022-09-14T11:26:31.606Z,84.70
2022-09-14T11:29:13.334Z,87.40
2022-09-14T11:32:10.296Z,87.30
2022-09-14T11:34:57.980Z,86.50
2022-09-14T11:37:44.936Z,86.20
2022-09-14T11:40:33.138Z,86.60
2022-09-14T11:43:08.548Z,87.60
2022-09-14T11:45:46.484Z,87.00
2022-09-14T11:48:42.319Z,86.70
2022-09-14T11:51:11.568Z,87.00
2022-09-14T11:53:40.677Z,86.70
2022-09-14T11:56:23.626Z,86.00
2022-09-14T11:58:50.916Z,87.50
2022-09-14T12:01:30.862Z,88.30
2022-09-14T12:03:59.653Z,88.30
2022-09-14T12:06:35.524Z,88.00
2022-09-14T12:09:17.178Z,88.10
2022-09-14T12:11:45.028Z,89.50
2022-09-14T12:14:24.383Z,88.10
2022-09-14T12:17:43.137Z,87.10
2022-09-14T12:20:31.602Z,89.40
2022-09-14T12:23:13.402Z,90.70
2022-09-14T12:25:53.020Z,90.20
2022-09-14T12:28:39.709Z,91.20
2022-09-14T12:31:26.674Z,90.20
2022-09-14T12:34:06.595Z,91.50
2022-09-14T12:36:33.380Z,89.90
2022-09-14T12:39:00.018Z,90.10
2022-09-14T12:41:26.597Z,92.30
2022-09-14T12:43:56.233Z,93.10
2022-09-14T12:46:22.884Z,94.10
2022-09-14T12:48:58.713Z,93.20
2022-09-14T12:51:35.326Z,93.60
2022-09-14T12:54:08.242Z,92.90
2022-09-14T12:56:55.992Z,92.70
2022-09-14T12:59:28.847Z,93.00
2022-09-14T13:02:32.692Z,93.40
2022-09-14T13:04:59.654Z,92.80
2022-09-14T13:07:35.972Z,94.20
2022-09-14T13:10:06.274Z,93.30
2022-09-14T13:12:45.124Z,94.80
2022-09-14T13:15:22.482Z,95.60
2022-09-14T13:18:00.272Z,95.60
2022-09-14T13:20:28.078Z,95.70
2022-09-14T13:22:54.818Z,94.80
2022-09-14T13:25:32.853Z,97.00
2022-09-14T13:28:03.030Z,95.40
2022-09-14T13:30:31.453Z,95.70
2022-09-14T13:32:59.397Z,96.20
2022-09-14T13:35:34.387Z,97.90
2022-09-14T13:38:08.859Z,98.30
2022-09-14T13:40:35.746Z,98.30
2022-09-14T13:43:02.867Z,98.30
2022-09-14T13:45:29.943Z,98.10
2022-09-14T13:47:56.973Z,98.30
2022-09-14T13:50:27.238Z,98.30
2022-09-14T13:53:02.457Z,98.30
2022-09-14T13:55:33.275Z,98.30
2022-09-14T13:58:12.044Z,98.30
2022-09-14T14:00:56.067Z,98.30
2022-09-14T14:03:49.317Z,98.30
2022-09-14T14:06:21.357Z,98.30
2022-09-14T14:08:58.821Z,98.30
2022-09-14T14:11:37.831Z,98.30
2022-09-14T14:14:15.185Z,98.30
2022-09-14T14:17:02.657Z,98.30
2022-09-14T14:19:30.970Z,98.30
2022-09-14T14:22:16.034Z,98.30
2022-09-14T14:25:11.810Z,98.30
2022-09-14T14:27:34.437Z,98.30
2022-09-14T14:30:04.106Z,98.30
2022-09-14T14:32:31.596Z,98.30
2022-09-14T14:35:04.651Z,98.30
2022-09-14T14:37:31.287Z,98.30
2022-09-14T14:39:58.039Z,98.30
2022-09-14T14:42:24.873Z,98.30
2022-09-14T14:44:51.537Z,98.30
2022-09-14T14:47:18.356Z,98.30
2022-09-14T14:49:44.984Z,98.30
2022-09-14T14:52:11.709Z,98.30
2022-09-14T14:54:40.921Z,98.30
2022-09-14T14:57:10.050Z,98.30
2022-09-14T14:59:36.710Z,98.30
2022-09-14T15:02:05.414Z,98.30
2022-09-14T15:04:32.186Z,98.30
2022-09-14T15:06:59.039Z,98.30
2022-09-14T15:09:27.582Z,98.30
2022-09-14T15:11:55.019Z,98.30
2022-09-14T15:14:26.976Z,98.30
2022-09-14T15:16:57.843Z,98.30
2022-09-14T15:19:25.654Z,98.30
2022-09-14T15:21:52.772Z,98.30
2022-09-14T15:24:21.178Z,98.30
2022-09-14T15:26:47.847Z,98.30
2022-09-14T15:29:17.388Z,98.30
2022-09-14T15:31:44.060Z,98.30
2022-09-14T15:34:10.677Z,98.30
2022-09-14T15:36:50.876Z,98.30
2022-09-14T15:39:25.557Z,98.30
2022-09-14T15:41:53.509Z,98.30
2022-09-14T15:44:20.446Z,98.30
2022-09-14T15:46:47.532Z,98.30
2022-09-14T15:49:20.406Z,98.30
2022-09-14T15:51:48.657Z,98.30
2022-09-14T15:54:15.852Z,98.30
2022-09-14T15:56:42.478Z,98.30
2022-09-14T15:59:09.194Z,98.30
2022-09-14T16:01:36.489Z,98.30
2022-09-14T16:04:08.275Z,98.30
2022-09-14T16:06:37.839Z,98.30
2022-09-14T16:09:08.677Z,98.30
2022-09-14T16:11:36.641Z,98.30
2022-09-14T16:14:07.498Z,98.30
2022-09-14T16:16:35.834Z,98.30
2022-09-14T16:19:08.562Z,98.30
2022-09-14T16:21:35.774Z,98.30
2022-09-14T16:24:06.370Z,98.30
2022-09-14T16:26:35.989Z,98.30
2022-09-14T16:29:03.584Z,98.30
2022-09-14T16:31:33.017Z,98.30
2022-09-14T16:34:07.160Z,98.30
2022-09-14T16:36:37.124Z,98.30
2022-09-14T16:39:09.293Z,98.30
2022-09-14T16:41:38.042Z,98.30
2022-09-14T16:44:05.572Z,98.30
2022-09-14T16:46:34.058Z,98.30
2022-09-14T16:49:00.737Z,98.30
2022-09-14T16:51:30.354Z,98.30
2022-09-14T16:53:59.657Z,98.30
2022-09-14T16:56:32.422Z,98.30
2022-09-14T16:59:00.484Z,98.30
2022-09-14T17:01:31.394Z,98.30
2022-09-14T17:04:05.198Z,98.30
2022-09-14T17:06:32.782Z,98.30
2022-09-14T17:09:04.394Z,98.30
2022-09-14T17:11:33.196Z,98.30
2022-09-14T17:14:00.043Z,98.30
2022-09-14T17:16:28.068Z,98.30
2022-09-14T17:18:59.149Z,98.30
2022-09-14T17:21:28.944Z,98.30
2022-09-14T17:23:56.046Z,98.30
2022-09-14T17:26:23.451Z,98.30
2022-09-14T17:28:52.107Z,98.30
2022-09-14T17:31:23.125Z,98.30
2022-09-14T17:33:52.041Z,98.30
2022-09-14T17:36:18.825Z,98.30
2022-09-14T17:38:45.464Z,98.30
2022-09-14T17:41:20.531Z,98.30
2022-09-14T17:43:56.961Z,98.30
2022-09-14T17:46:24.710Z,98.30
2022-09-14T17:48:52.294Z,98.30
2022-09-14T17:51:21.629Z,98.30
2022-09-14T17:53:52.377Z,98.30
2022-09-14T17:56:22.641Z,98.30
2022-09-14T17:58:58.570Z,98.30
2022-09-14T18:01:25.367Z,98.30
2022-09-14T18:03:58.553Z,98.30
2022-09-14T18:06:32.166Z,98.30
2022-09-14T18:09:01.658Z,98.30
2022-09-14T18:11:29.628Z,98.30
2022-09-14T18:13:56.531Z,98.30
2022-09-14T18:16:24.137Z,98.30
2022-09-14T18:18:51.443Z,98.30
2022-09-14T18:21:18.627Z,98.30
2022-09-14T18:23:50.069Z,98.30
2022-09-14T18:26:17.500Z,98.30
2022-09-14T18:28:45.097Z,98.30
2022-09-14T18:31:14.328Z,98.30
2022-09-14T18:33:47.765Z,98.30
2022-09-14T18:36:15.173Z,98.30
2022-09-14T18:38:42.459Z,98.30
2022-09-14T18:41:10.620Z,98.30
2022-09-14T18:43:38.296Z,98.30
2022-09-14T18:46:07.094Z,98.30
2022-09-14T18:48:34.889Z,98.30
2022-09-14T18:51:04.415Z,98.30
2022-09-14T18:53:31.743Z,98.30
2022-09-14T18:56:02.826Z,98.30
2022-09-14T18:58:39.219Z,98.30
2022-09-14T19:01:07.431Z,98.30
2022-09-14T19:03:34.467Z,98.30
2022-09-14T19:06:10.509Z,98.30
2022-09-14T19:08:37.636Z,98.30
2022-09-14T19:11:08.871Z,98.30
2022-09-14T19:13:36.037Z,98.30
2022-09-14T19:16:13.216Z,98.30
2022-09-14T19:18:40.305Z,98.30
2022-09-14T19:21:16.040Z,98.30
2022-09-14T19:23:43.150Z,98.30
2022-09-14T19:26:23.423Z,98.30
2022-09-14T19:28:50.091Z,98.30
2022-09-14T19:31:18.825Z,98.30
2022-09-14T19:33:45.953Z,98.30
2022-09-14T19:36:16.182Z,98.30
2022-09-14T19:38:43.017Z,98.30
2022-09-14T19:41:10.017Z,98.30
2022-09-14T19:43:36.677Z,98.30
2022-09-14T19:46:05.123Z,98.30
2022-09-14T19:48:32.560Z,98.30
2022-09-14T19:51:00.824Z,98.30
2022-09-14T19:53:32.350Z,98.30
2022-09-14T19:55:59.274Z,98.30
2022-09-14T19:58:29.802Z,98.30
2022-09-14T20:00:57.473Z,98.30
2022-09-14T20:03:24.787Z,98.30
2022-09-14T20:06:09.892Z,98.30
2022-09-14T20:08:37.192Z,98.30
2022-09-14T20:11:16.575Z,98.30
2022-09-14T20:13:45.854Z,98.30
2022-09-14T20:16:15.073Z,98.30
2022-09-14T20:18:43.068Z,98.30
2022-09-14T20:21:11.280Z,98.30
2022-09-14T20:23:48.613Z,98.30
2022-09-14T20:26:26.769Z,98.30
2022-09-14T20:28:54.717Z,98.30
2022-09-14T20:31:22.261Z,98.30
2022-09-14T20:33:49.411Z,98.30
2022-09-14T20:36:19.077Z,98.30
2022-09-14T20:38:54.121Z,98.30
2022-09-14T20:41:22.825Z,98.30
2022-09-14T20:43:49.664Z,98.30
2022-09-14T20:46:19.644Z,98.30
2022-09-14T20:48:48.018Z,98.30
2022-09-14T20:51:19.864Z,98.30
2022-09-14T20:53:48.387Z,98.30
2022-09-14T20:56:20.587Z,98.30
2022-09-14T20:58:48.269Z,98.30
2022-09-14T21:01:22.690Z,98.30
2022-09-14T21:03:50.470Z,98.30
2022-09-14T21:06:25.619Z,98.30
2022-09-14T21:08:52.803Z,98.30
2022-09-14T21:11:23.636Z,98.30
2022-09-14T21:13:51.918Z,98.30
2022-09-14T21:16:27.219Z,98.30
2022-09-14T21:18:59.764Z,98.30
2022-09-14T21:21:27.708Z,98.30
2022-09-14T21:23:56.150Z,98.30
2022-09-14T21:26:23.983Z,98.30
2022-09-14T21:28:57.903Z,98.30
2022-09-14T21:31:26.131Z,98.30
2022-09-14T21:33:54.543Z,98.30
2022-09-14T21:36:49.003Z,98.30
2022-09-14T21:39:19.309Z,98.30
2022-09-14T21:41:46.340Z,98.30
2022-09-14T21:44:13.674Z,98.30
2022-09-14T21:46:40.794Z,98.30
2022-09-14T21:49:09.253Z,98.30
2022-09-14T21:51:37.006Z,98.30
2022-09-14T21:54:06.789Z,98.30
2022-09-14T21:56:36.802Z,98.30
2022-09-14T21:59:06.677Z,98.30
2022-09-14T22:01:33.616Z,98.30
2022-09-14T22:04:00.693Z,98.30
2022-09-14T22:06:30.535Z,98.30
2022-09-14T22:08:59.836Z,98.30
2022-09-14T22:11:34.294Z,98.30
2022-09-14T22:14:25.970Z,98.30
2022-09-14T22:16:52.723Z,98.30
2022-09-14T22:19:25.538Z,98.30
2022-09-14T22:21:53.051Z,98.30
2022-09-14T22:24:22.828Z,98.30
2022-09-14T22:26:50.442Z,98.30
2022-09-14T22:29:18.469Z,98.30
2022-09-14T22:31:46.044Z,98.30
2022-09-14T22:34:13.355Z,98.30
2022-09-14T22:36:40.268Z,98.30
2022-09-14T22:39:07.699Z,98.30
2022-09-14T22:41:35.110Z,98.30
2022-09-14T22:44:03.189Z,98.30
2022-09-14T22:46:30.284Z,98.30
2022-09-14T22:48:57.109Z,98.30
2022-09-14T22:51:25.671Z,98.30
2022-09-14T22:53:53.014Z,98.30
2022-09-14T22:56:21.588Z,98.30
2022-09-14T22:58:48.837Z,98.30
2022-09-14T23:01:24.467Z,98.30
2022-09-14T23:04:03.030Z,98.30
2022-09-14T23:06:38.464Z,98.30
2022-09-14T23:09:07.481Z,98.30
2022-09-14T23:11:34.450Z,98.30
2022-09-14T23:14:01.238Z,98.30
2022-09-14T23:16:30.075Z,98.30
2022-09-14T23:19:02.227Z,98.30
2022-09-14T23:21:30.953Z,98.30
2022-09-14T23:24:00.176Z,98.30
2022-09-14T23:26:27.154Z,98.30
2022-09-14T23:28:56.442Z,98.30
2022-09-14T23:31:23.912Z,98.30
2022-09-14T23:33:52.500Z,98.30
2022-09-14T23:36:20.381Z,98.30
2022-09-14T23:38:48.039Z,98.30
2022-09-14T23:41:21.890Z,98.30
2022-09-14T23:43:48.905Z,98.30
2022-09-14T23:46:16.318Z,98.30
2022-09-14T23:48:43.182Z,98.30
2022-09-14T23:51:11.013Z,98.30
2022-09-14T23:53:37.833Z,98.30
2022-09-14T23:56:05.085Z,98.30
2022-09-14T23:58:32.067Z,98.30
